CYZP

Sandspit Airport

Sandspit, , Canada
METAR CYZP 260400Z AUTO 23007KT 9SM CLR 09/02 A2999 RMK SLP158
Observed Flight Rules
May-26 @ 04:00 UTC (24 minutes ago) Visual Flight Rules
Wind Visibility Clouds
230° at 7 knots 9 miles
  • Clear skies
Temperatures Readings
Current 9°C / 48°F
Dewpoint 2°C / 36°F
Humidity 62%
Altimeter 29.99" Hg
Pressure 1015.8 hPa
Elevation 6
METAR CYZP 260400Z AUTO 23007KT 9SM CLR 09/02 A2999 RMK SLP158
Observed Flight Rules
May-26 @ 04:00 UTC
(24 minutes ago)
VFR
Wind Visibility
230° at 7 knots 9 miles
Clouds
  • Clear skies
Temperature Dewpoint
9°C / 48°F 2°C / 36°F
Humidity Altimeter Pressure
62% 29.99" Hg 1015.8 hPa